Time;durP1;ratioP1;P1;durP2;ratioP2;P2;SDS_P1;SDS_P2;PMS_P1;PMS_P2;Temp;Humidity;BMP_temperature;BMP_pressure;BME280_temperature;BME280_humidity;BME280_pressure;Samples;Min_cycle;Max_cycle;Signal;HPM_P1;HPM_P2
2022/11/02 00:00:50;;;;;;;1.10;1.00;;;;;;;5.14;98.10;100882.91;10575534;28;20048;-77
2022/11/02 00:05:52;;;;;;;1.42;1.10;;;;;;;5.11;98.45;100891.56;10599452;28;20055;-76
2022/11/02 00:10:54;;;;;;;1.50;1.00;;;;;;;5.05;98.53;100900.69;10598579;28;20032;-75
2022/11/02 00:16:00;;;;;;;1.75;1.30;;;;;;;5.04;97.84;100909.09;10568584;28;20498;-74
2022/11/02 00:21:03;;;;;;;1.65;1.35;;;;;;;5.07;98.60;100904.00;10607301;27;20058;-73
2022/11/02 00:26:05;;;;;;;1.00;0.90;;;;;;;5.03;98.20;100910.97;10588610;28;20059;-75
2022/11/02 00:31:08;;;;;;;1.27;1.08;;;;;;;5.09;97.63;100909.19;10584496;28;20044;-75
2022/11/02 00:36:10;;;;;;;1.42;1.05;;;;;;;5.16;97.74;100907.16;10584361;28;20035;-74
2022/11/02 00:41:12;;;;;;;2.22;1.20;;;;;;;5.22;97.91;100908.13;10573671;28;20050;-76
2022/11/02 00:46:14;;;;;;;1.25;1.15;;;;;;;5.23;97.86;100901.59;10578150;28;20045;-75
2022/11/02 00:51:17;;;;;;;1.27;1.10;;;;;;;5.29;96.49;100916.97;10588794;28;20534;-73
2022/11/02 00:56:20;;;;;;;1.35;1.25;;;;;;;5.28;96.83;100918.84;10607927;28;20049;-74
2022/11/02 01:01:23;;;;;;;2.78;1.55;;;;;;;5.29;96.69;100914.25;10594930;28;20031;-78
2022/11/02 01:06:25;;;;;;;1.90;1.20;;;;;;;5.26;97.03;100920.16;10601115;28;20065;-74
2022/11/02 01:11:28;;;;;;;2.33;1.50;;;;;;;5.25;97.26;100921.22;10601042;28;20040;-76
2022/11/02 01:16:31;;;;;;;1.40;1.23;;;;;;;5.30;97.15;100924.06;10608512;28;20036;-83
2022/11/02 01:21:33;;;;;;;1.38;1.10;;;;;;;5.35;96.83;100929.59;10593660;28;20039;-73
2022/11/02 01:26:37;;;;;;;1.50;1.20;;;;;;;5.30;97.17;100938.47;10594322;28;20045;-77
2022/11/02 01:31:39;;;;;;;2.47;1.40;;;;;;;5.32;97.80;100946.41;10596265;28;20039;-76
2022/11/02 01:36:43;;;;;;;1.70;1.50;;;;;;;5.31;97.45;100940.13;10595074;28;20042;-77
2022/11/02 01:41:51;;;;;;;1.60;1.30;;;;;;;5.30;96.89;100949.38;10591552;28;20493;-79
2022/11/02 01:46:59;;;;;;;1.85;1.15;;;;;;;5.31;97.08;100945.56;10613280;28;20520;-75
2022/11/02 01:52:13;;;;;;;1.45;1.10;;;;;;;5.29;97.30;100946.88;10594591;28;20524;-75
2022/11/02 01:57:18;;;;;;;2.13;1.15;;;;;;;5.26;97.05;100942.75;10607431;27;20558;-74
2022/11/02 02:02:23;;;;;;;1.60;1.08;;;;;;;5.20;96.17;100937.41;10597358;28;20043;-77
2022/11/02 02:07:26;;;;;;;3.25;1.10;;;;;;;5.22;95.67;100941.59;10579006;28;20051;-77
2022/11/02 02:12:29;;;;;;;1.27;1.00;;;;;;;5.18;95.76;100942.28;10615633;28;20047;-74
2022/11/02 02:17:47;;;;;;;0.60;0.60;;;;;;;5.12;95.65;100947.63;10610843;28;20062;-73
2022/11/02 02:23:29;;;;;;;1.42;0.80;;;;;;;5.07;95.09;100950.22;10592065;28;20032;-75
2022/11/02 02:28:53;;;;;;;1.63;0.90;;;;;;;5.05;94.85;100949.63;10572793;28;20402;-76
2022/11/02 02:34:31;;;;;;;1.00;0.80;;;;;;;5.09;95.42;100952.69;10574497;28;20040;-76
2022/11/02 02:39:42;;;;;;;1.35;1.25;;;;;;;5.02;95.70;100950.09;10494792;28;20047;-76
2022/11/02 02:45:12;;;;;;;2.47;1.10;;;;;;;5.06;94.95;100951.28;10584856;28;20042;-75
2022/11/02 02:50:25;;;;;;;1.02;0.70;;;;;;;5.09;94.64;100955.44;10610389;28;20554;-75
2022/11/02 02:55:33;;;;;;;0.98;0.88;;;;;;;5.07;94.70;100952.94;10584619;28;20040;-75
2022/11/02 03:00:35;;;;;;;1.35;1.00;;;;;;;5.08;94.44;100951.88;10554535;28;20063;-75
2022/11/02 03:05:38;;;;;;;0.73;0.73;;;;;;;5.06;94.56;100967.63;10575472;28;20054;-75
2022/11/02 03:10:52;;;;;;;1.40;0.90;;;;;;;5.19;94.64;100957.53;10571145;28;20055;-75
2022/11/02 03:16:02;;;;;;;1.98;1.00;;;;;;;5.23;94.31;100953.28;10598078;28;20457;-75
2022/11/02 03:21:24;;;;;;;0.85;0.77;;;;;;;5.20;93.96;100953.75;10609099;28;20028;-75
2022/11/02 03:26:50;;;;;;;2.20;0.90;;;;;;;5.05;94.33;100962.41;10607798;28;20417;-75
2022/11/02 03:32:10;;;;;;;1.10;1.00;;;;;;;4.98;94.40;100959.78;10579460;28;20067;-75
2022/11/02 03:37:13;;;;;;;1.60;1.00;;;;;;;5.03;93.52;100956.34;10578593;28;20044;-74
2022/11/02 03:42:19;;;;;;;1.10;1.00;;;;;;;5.17;94.48;100952.31;10612332;28;20367;-75
2022/11/02 03:47:24;;;;;;;1.17;1.05;;;;;;;5.08;93.55;100961.94;10568487;28;20533;-75
2022/11/02 03:52:30;;;;;;;1.70;1.38;;;;;;;5.03;93.61;100957.22;10576162;28;20051;-75
2022/11/02 03:57:44;;;;;;;1.27;0.80;;;;;;;5.04;93.89;100967.03;10566301;28;20054;-75
2022/11/02 04:02:50;;;;;;;1.17;1.00;;;;;;;4.92;93.12;100966.19;10561396;27;20039;-75
2022/11/02 04:29:19;;;;;;;1.50;1.40;;;;;;;4.95;94.53;100970.31;10608312;28;20048;-75
2022/11/02 04:34:22;;;;;;;1.20;1.10;;;;;;;4.94;94.12;100977.66;10610942;28;20051;-75
2022/11/02 04:39:24;;;;;;;1.58;1.30;;;;;;;4.89;95.11;100974.81;10594007;28;20051;-75
2022/11/02 04:44:26;;;;;;;1.35;1.25;;;;;;;4.90;95.14;100972.94;10613378;28;20054;-75
2022/11/02 04:49:35;;;;;;;1.63;1.45;;;;;;;4.94;94.96;100974.94;10653075;28;20047;-75
2022/11/02 04:54:39;;;;;;;1.80;1.58;;;;;;;4.94;95.59;100985.81;10636608;28;20051;-75
2022/11/02 04:59:42;;;;;;;2.03;1.35;;;;;;;4.93;95.20;100977.88;10554547;28;20048;-75
2022/11/02 05:04:44;;;;;;;1.77;1.60;;;;;;;5.11;95.59;100980.50;10606894;28;20517;-75
2022/11/02 05:09:48;;;;;;;1.70;1.58;;;;;;;5.00;95.85;100984.84;10609399;28;20036;-75
2022/11/02 05:14:50;;;;;;;2.58;1.65;;;;;;;4.97;95.03;100990.78;10610720;28;20047;-75
2022/11/02 05:19:53;;;;;;;4.25;2.50;;;;;;;4.93;95.23;100989.59;10616101;28;20060;-75
2022/11/02 05:24:56;;;;;;;4.25;2.70;;;;;;;4.92;95.69;100996.09;10617393;28;20043;-75
2022/11/02 05:29:58;;;;;;;3.28;2.40;;;;;;;4.96;96.16;100996.44;10617464;28;20047;-75
2022/11/02 05:35:01;;;;;;;5.03;3.00;;;;;;;4.99;96.30;101004.97;10587318;28;20055;-75
2022/11/02 05:40:07;;;;;;;3.40;2.58;;;;;;;5.00;96.62;100994.91;10587440;28;20047;-83
2022/11/02 05:45:09;;;;;;;6.05;2.47;;;;;;;5.04;96.48;101007.81;10591438;28;20032;-82
2022/11/02 05:50:12;;;;;;;3.55;2.55;;;;;;;5.07;96.01;101009.25;10578379;28;20044;-84
2022/11/02 05:55:14;;;;;;;2.63;2.28;;;;;;;5.12;96.61;101010.19;10613108;28;20047;-78
2022/11/02 06:00:16;;;;;;;4.63;2.97;;;;;;;5.12;95.98;101009.34;10609837;28;20066;-77
2022/11/02 06:05:18;;;;;;;4.10;2.50;;;;;;;5.12;96.50;101010.19;10599657;28;20522;-79
2022/11/02 06:10:20;;;;;;;6.75;2.60;;;;;;;5.06;96.11;101005.69;10598190;28;20035;-76
2022/11/02 06:15:23;;;;;;;3.88;2.63;;;;;;;5.12;96.39;101015.63;10617059;28;20051;-78
2022/11/02 06:20:25;;;;;;;4.97;3.20;;;;;;;5.14;96.92;101018.09;10613267;28;20058;-78
2022/11/02 06:25:28;;;;;;;6.13;3.33;;;;;;;5.12;97.24;101015.63;10616558;28;20054;-79
2022/11/02 06:30:30;;;;;;;5.90;2.92;;;;;;;5.06;96.75;101013.03;10617355;28;20053;-79
2022/11/02 06:35:32;;;;;;;5.75;3.30;;;;;;;5.11;97.45;101013.97;10616860;28;20039;-79
2022/11/02 06:40:34;;;;;;;5.97;3.40;;;;;;;5.11;97.06;101019.41;10610676;28;20066;-79
2022/11/02 06:45:36;;;;;;;7.50;3.92;;;;;;;5.09;97.47;101026.16;10616613;28;20043;-79
2022/11/02 06:50:38;;;;;;;7.07;3.30;;;;;;;5.08;98.00;101030.75;10616451;28;20414;-79
2022/11/02 06:55:41;;;;;;;6.93;3.25;;;;;;;5.14;97.78;101029.81;10596958;28;20056;-79
2022/11/02 07:00:43;;;;;;;5.97;3.10;;;;;;;5.18;97.63;101029.31;10572655;28;20130;-79
2022/11/02 07:05:51;;;;;;;5.00;2.47;;;;;;;5.12;97.85;101028.38;10572912;28;20036;-79
2022/11/02 07:10:53;;;;;;;5.90;2.60;;;;;;;5.03;98.12;101033.38;10584642;28;20498;-79
2022/11/02 07:15:55;;;;;;;4.07;2.42;;;;;;;5.17;97.75;101035.84;10609003;28;20063;-79
2022/11/02 07:20:58;;;;;;;4.55;2.95;;;;;;;5.18;98.05;101045.66;10581305;28;20036;-79
2022/11/02 07:26:01;;;;;;;5.57;3.30;;;;;;;5.16;98.84;101045.88;10572025;28;20040;-79
2022/11/02 07:31:04;;;;;;;4.30;2.60;;;;;;;5.03;98.55;101055.13;10581957;28;20558;-79
2022/11/02 07:36:07;;;;;;;3.85;2.72;;;;;;;4.91;97.84;101056.16;10585841;28;20078;-77
2022/11/02 07:41:09;;;;;;;5.18;2.90;;;;;;;5.09;98.22;101051.44;10588593;28;20048;-77
2022/11/02 07:46:12;;;;;;;4.20;3.03;;;;;;;5.18;98.48;101056.53;10609643;28;20047;-79
2022/11/02 07:51:14;;;;;;;3.92;2.95;;;;;;;5.20;98.40;101063.38;10598044;28;20106;-79
2022/11/02 07:56:16;;;;;;;4.57;3.13;;;;;;;5.24;98.89;101055.63;10593630;28;20050;-79
2022/11/02 08:01:18;;;;;;;5.55;2.90;;;;;;;5.24;98.13;101056.44;10587275;28;20044;-77
2022/11/02 08:06:22;;;;;;;3.40;2.25;;;;;;;5.32;97.95;101060.69;10573596;28;20039;-75
2022/11/02 08:11:25;;;;;;;3.80;2.67;;;;;;;5.23;98.63;101053.97;10611221;28;20055;-74
2022/11/02 08:16:28;;;;;;;5.65;3.05;;;;;;;5.12;98.31;101053.69;10576073;28;20066;-75
2022/11/02 08:21:30;;;;;;;6.47;2.97;;;;;;;5.21;98.61;101056.09;10611319;28;20043;-75
2022/11/02 08:26:33;;;;;;;5.28;2.97;;;;;;;5.15;98.41;101061.38;10611811;28;20047;-75
2022/11/02 08:31:36;;;;;;;5.18;2.85;;;;;;;5.18;98.28;101062.81;10592962;28;20047;-75
2022/11/02 08:36:38;;;;;;;4.55;2.63;;;;;;;5.18;98.40;101067.41;10609821;28;20051;-75
2022/11/02 08:41:41;;;;;;;3.60;2.30;;;;;;;5.09;98.98;101065.06;10610782;28;20421;-75
2022/11/02 08:46:43;;;;;;;4.53;2.67;;;;;;;5.07;98.61;101069.91;10603365;28;20040;-76
2022/11/02 08:51:46;;;;;;;4.13;2.88;;;;;;;5.14;98.68;101069.78;10594435;28;20043;-75
2022/11/02 08:56:48;;;;;;;4.43;3.20;;;;;;;5.22;98.63;101066.72;10618792;28;20544;-75
2022/11/02 09:01:50;;;;;;;5.70;3.15;;;;;;;5.35;99.53;101080.09;10602121;28;20040;-75
2022/11/02 09:06:53;;;;;;;3.95;2.65;;;;;;;5.29;99.12;101074.78;10577228;28;20483;-76
2022/11/02 09:11:55;;;;;;;3.88;2.97;;;;;;;5.33;99.20;101078.66;10576740;28;20056;-75
2022/11/02 09:16:58;;;;;;;3.15;2.20;;;;;;;5.34;99.46;101067.53;10576771;28;20498;-75
2022/11/02 09:22:00;;;;;;;6.22;2.22;;;;;;;5.35;99.10;101077.38;10575456;28;20048;-75
2022/11/02 09:27:02;;;;;;;3.80;2.55;;;;;;;5.37;99.22;101079.84;10577044;28;20489;-76
2022/11/02 09:32:04;;;;;;;3.15;1.98;;;;;;;5.40;98.53;101080.22;10576223;28;20035;-77
2022/11/02 09:37:06;;;;;;;5.38;2.20;;;;;;;5.58;98.39;101076.56;10583111;28;20081;-76
2022/11/02 09:42:11;;;;;;;2.85;2.22;;;;;;;5.56;98.86;101070.53;10614997;28;20052;-76
2022/11/02 09:47:14;;;;;;;3.97;1.90;;;;;;;5.64;97.85;101075.59;10616282;28;20047;-76
2022/11/02 09:52:36;;;;;;;4.75;2.33;;;;;;;5.69;97.19;101078.44;10616458;28;20470;-76
2022/11/02 09:57:42;;;;;;;4.10;2.80;;;;;;;5.57;96.98;101084.97;10611974;28;20044;-76
2022/11/02 10:03:03;;;;;;;2.10;1.90;;;;;;;5.56;97.38;101072.44;10556860;28;20051;-76
2022/11/02 10:08:17;;;;;;;23.13;4.03;;;;;;;5.57;97.00;101084.97;10575118;28;20414;-76
2022/11/02 10:13:42;;;;;;;4.07;2.20;;;;;;;5.50;96.57;101095.94;10575755;28;20051;-76
2022/11/02 10:18:49;;;;;;;3.92;2.00;;;;;;;5.51;96.22;101092.16;10578082;28;20056;-74
2022/11/02 10:23:53;;;;;;;4.53;2.55;;;;;;;5.53;96.49;101095.47;10594480;28;20062;-76
2022/11/02 10:29:12;;;;;;;2.70;1.65;;;;;;;5.53;96.33;101087.31;10594430;28;20038;-75
2022/11/02 10:34:26;;;;;;;2.60;1.60;;;;;;;5.48;96.37;101097.25;10595812;28;20044;-77
2022/11/02 10:39:38;;;;;;;2.28;1.58;;;;;;;5.46;96.54;101100.22;10580274;28;20159;-77
2022/11/02 10:44:46;;;;;;;1.90;1.70;;;;;;;5.48;96.92;101099.97;10589384;28;20036;-77
2022/11/02 10:50:05;;;;;;;1.60;1.30;;;;;;;5.53;97.11;101092.75;10615463;27;20445;-77
2022/11/02 10:55:16;;;;;;;2.88;1.65;;;;;;;5.62;96.48;101094.06;10598726;28;20039;-76
2022/11/02 11:00:24;;;;;;;7.45;2.15;;;;;;;5.59;96.76;101101.88;10606278;28;20046;-77
2022/11/02 11:05:26;;;;;;;3.33;2.38;;;;;;;5.59;96.46;101099.16;10596429;28;20077;-77
2022/11/02 11:10:34;;;;;;;5.30;3.47;;;;;;;5.48;96.71;101099.97;10605225;28;20040;-77
2022/11/02 11:15:36;;;;;;;;;;;;;;;5.36;97.38;101102.69;10576106;28;20607;-76
2022/11/02 11:20:40;;;;;;;5.57;2.30;;;;;;;5.33;97.49;101111.31;10582785;28;19920;-77
2022/11/02 11:25:42;;;;;;;2.38;1.80;;;;;;;5.36;96.75;101113.56;10600784;28;20386;-77
2022/11/02 11:30:49;;;;;;;1.80;1.70;;;;;;;5.30;97.43;101104.47;10613560;28;20052;-76
2022/11/02 11:35:51;;;;;;;2.30;1.95;;;;;;;5.28;97.67;101106.59;10610019;28;20052;-76
2022/11/02 11:40:56;;;;;;;6.47;3.17;;;;;;;5.24;97.49;101099.97;10600589;28;20047;-77
2022/11/02 11:46:00;;;;;;;5.95;3.80;;;;;;;5.21;97.88;101114.06;10569083;28;20043;-77
2022/11/02 11:51:03;;;;;;;6.82;3.85;;;;;;;5.14;98.13;101107.88;10608172;28;20043;-75
2022/11/02 11:56:24;;;;;;;6.57;4.60;;;;;;;5.14;98.00;101099.72;10609182;28;20048;-77
2022/11/02 12:01:26;;;;;;;4.20;3.17;;;;;;;5.10;98.40;101101.25;10601961;28;20059;-77
2022/11/02 12:06:45;;;;;;;5.47;3.15;;;;;;;5.11;97.92;101101.00;10596614;28;20039;-77
2022/11/02 12:12:00;;;;;;;2.25;2.05;;;;;;;5.13;98.36;101095.34;10598404;28;20032;-77
2022/11/02 12:17:14;;;;;;;3.92;2.90;;;;;;;5.15;99.02;101098.63;10575701;27;20150;-77
2022/11/02 12:22:29;;;;;;;5.53;2.97;;;;;;;5.18;98.88;101102.78;10595605;28;20151;-78
2022/11/02 12:27:44;;;;;;;3.53;2.65;;;;;;;5.08;98.66;101096.03;10596651;27;20035;-77
2022/11/02 12:33:09;;;;;;;1.60;1.42;;;;;;;5.13;98.09;101092.59;10598107;28;20036;-77
2022/11/02 12:38:39;;;;;;;2.42;2.15;;;;;;;5.19;98.73;101090.84;10607833;27;20051;-77
2022/11/02 12:43:49;;;;;;;3.00;2.70;;;;;;;5.11;98.91;101095.56;10592992;28;20538;-78
2022/11/02 12:49:00;;;;;;;3.20;2.20;;;;;;;5.02;99.01;101102.38;10582363;28;20437;-76
2022/11/02 12:54:42;;;;;;;3.85;2.22;;;;;;;5.01;99.14;101103.44;10572628;28;20036;-77
2022/11/02 12:59:46;;;;;;;2.60;2.08;;;;;;;4.95;98.90;101098.97;10578065;28;20046;-78
2022/11/02 13:04:53;;;;;;;2.20;1.67;;;;;;;4.95;99.42;101101.69;10601479;28;20054;-77
2022/11/02 13:10:04;;;;;;;2.13;1.67;;;;;;;4.98;99.49;101101.22;10605358;28;20043;-74
2022/11/02 13:15:14;;;;;;;2.67;1.90;;;;;;;4.96;99.39;101107.94;10573530;28;20040;-75
2022/11/02 13:20:21;;;;;;;1.55;1.45;;;;;;;4.92;99.97;101110.31;10578083;28;20063;-75
2022/11/02 13:25:33;;;;;;;3.72;2.30;;;;;;;4.94;99.13;101116.34;10595486;28;20051;-75
2022/11/02 13:30:35;;;;;;;1.80;1.70;;;;;;;4.91;99.23;101110.53;10598162;28;20047;-73
2022/11/02 13:35:42;;;;;;;2.50;1.60;;;;;;;4.90;99.12;101111.59;10604633;28;20056;-73
2022/11/02 13:40:56;;;;;;;3.80;2.05;;;;;;;4.93;99.50;101114.69;10595674;28;20043;-73
2022/11/02 13:46:14;;;;;;;2.55;1.65;;;;;;;4.92;100.00;101123.91;10621535;27;20054;-72
2022/11/02 13:51:37;;;;;;;2.95;1.83;;;;;;;4.93;100.00;101127.44;10627605;27;20039;-73
2022/11/02 13:56:40;;;;;;;3.40;2.00;;;;;;;4.95;100.00;101123.44;10595959;27;20054;-74
2022/11/02 14:01:43;;;;;;;3.55;2.35;;;;;;;4.96;100.00;101122.38;10626433;27;20044;-73
2022/11/02 14:07:22;;;;;;;6.13;3.03;;;;;;;4.94;100.00;101127.22;10577907;28;20561;-74
2022/11/02 14:12:27;;;;;;;3.85;2.05;;;;;;;4.92;100.00;101123.91;10577700;28;20044;-73
2022/11/02 14:17:29;;;;;;;3.28;2.28;;;;;;;4.92;100.00;101123.91;10602151;28;20040;-73
2022/11/02 14:22:36;;;;;;;5.27;2.23;;;;;;;4.90;100.00;101120.59;10612170;27;20126;-73
2022/11/02 14:27:38;;;;;;;4.72;2.55;;;;;;;4.93;100.00;101131.00;10584070;27;20052;-73
2022/11/02 14:32:57;;;;;;;2.63;2.20;;;;;;;4.95;100.00;101131.59;10563194;28;20039;-73
2022/11/02 14:38:37;;;;;;;2.65;2.28;;;;;;;4.89;100.00;101128.97;10600286;27;20052;-73
2022/11/02 14:43:58;;;;;;;3.10;2.17;;;;;;;5.12;100.00;101127.16;10595222;27;20449;-73
2022/11/02 14:49:03;;;;;;;2.97;2.10;;;;;;;5.03;100.00;101120.41;10592405;28;20043;-73
2022/11/02 14:54:12;;;;;;;2.13;1.45;;;;;;;4.92;100.00;101132.06;10593417;27;20051;-73
2022/11/02 14:59:44;;;;;;;3.45;2.20;;;;;;;5.02;100.00;101126.88;10603423;27;20059;-73
2022/11/02 15:04:52;;;;;;;3.35;1.88;;;;;;;5.01;100.00;101129.81;10580526;27;20051;-73
2022/11/02 15:10:03;;;;;;;4.57;2.92;;;;;;;5.06;99.89;101133.53;10576854;27;20067;-73
2022/11/02 15:15:06;;;;;;;4.80;4.30;;;;;;;5.05;99.70;101129.16;10581351;28;20036;-73
2022/11/02 15:20:08;;;;;;;4.15;2.80;;;;;;;5.01;100.00;101125.22;10595600;28;20052;-73
2022/11/02 15:25:18;;;;;;;5.93;2.92;;;;;;;5.10;100.00;101134.72;10603841;27;20048;-73
2022/11/02 15:30:22;;;;;;;3.70;2.22;;;;;;;5.20;99.76;101125.13;10600078;28;20047;-74
2022/11/02 15:35:29;;;;;;;3.85;2.50;;;;;;;5.36;99.51;101133.44;10592018;27;20048;-74
2022/11/02 15:40:45;;;;;;;2.97;2.58;;;;;;;5.41;99.09;101128.16;10600760;28;20081;-73
2022/11/02 15:45:58;;;;;;;3.13;2.50;;;;;;;5.42;98.79;101131.69;10603138;27;20043;-73
2022/11/02 15:51:23;;;;;;;3.08;2.08;;;;;;;5.53;98.18;101139.03;10608863;28;20116;-73
2022/11/02 15:56:38;;;;;;;3.53;2.50;;;;;;;5.39;97.87;101140.34;10598946;27;20509;-73
2022/11/02 16:01:41;;;;;;;2.65;2.20;;;;;;;5.23;98.61;101143.75;10571084;27;20035;-73
2022/11/02 16:06:44;;;;;;;3.42;2.10;;;;;;;5.17;98.46;101142.75;10585361;27;20089;-73
2022/11/02 16:12:00;;;;;;;2.42;1.90;;;;;;;5.11;98.06;101149.97;10592601;27;20051;-74
2022/11/02 16:17:03;;;;;;;1.70;1.58;;;;;;;5.10;97.81;101147.50;10589973;27;20520;-72
2022/11/02 16:22:07;;;;;;;1.60;1.50;;;;;;;5.03;97.98;101153.03;10587585;27;20067;-73
2022/11/02 16:27:11;;;;;;;2.40;1.55;;;;;;;4.88;98.19;101147.19;10595053;27;20050;-73
2022/11/02 16:32:14;;;;;;;2.13;1.40;;;;;;;4.83;97.53;101156.00;10589862;27;20034;-73
2022/11/02 16:37:18;;;;;;;3.33;1.88;;;;;;;4.83;98.33;101158.72;10590657;28;20398;-73
2022/11/02 16:42:23;;;;;;;1.83;1.40;;;;;;;4.88;98.03;101157.25;10594575;28;20044;-73
2022/11/02 16:47:43;;;;;;;3.10;1.60;;;;;;;4.87;98.83;101153.69;10583162;28;20406;-73
2022/11/02 16:53:00;;;;;;;2.17;2.00;;;;;;;4.84;98.27;101145.97;10603353;28;20035;-72
2022/11/02 16:58:04;;;;;;;1.55;1.40;;;;;;;4.92;98.35;101151.09;10588545;28;20047;-74
2022/11/02 17:03:13;;;;;;;2.53;1.80;;;;;;;4.84;98.92;101151.41;10593633;28;20051;-73
2022/11/02 17:08:29;;;;;;;1.50;1.40;;;;;;;4.77;99.24;101153.41;10590483;28;20036;-73
2022/11/02 17:13:34;;;;;;;2.03;1.80;;;;;;;4.80;99.38;101158.38;10588617;28;20035;-73
2022/11/02 17:18:37;;;;;;;1.60;1.20;;;;;;;4.79;99.07;101157.53;10558990;28;20046;-73
2022/11/02 17:23:42;;;;;;;0.73;0.65;;;;;;;4.79;99.34;101152.09;10602367;28;20410;-74
2022/11/02 17:28:48;;;;;;;2.10;1.50;;;;;;;4.75;100.00;101163.69;10617145;28;20042;-74
2022/11/02 17:33:57;;;;;;;2.53;1.88;;;;;;;4.72;99.95;101159.53;10598875;27;20054;-77
2022/11/02 17:39:01;;;;;;;2.97;2.15;;;;;;;4.66;100.00;101160.44;10603368;28;20539;-77
2022/11/02 17:44:14;;;;;;;3.78;1.38;;;;;;;4.74;100.00;101143.81;10615688;27;20055;-75
2022/11/02 17:49:18;;;;;;;4.68;2.40;;;;;;;4.74;100.00;101157.41;10617481;27;20039;-75
2022/11/02 17:54:20;;;;;;;2.67;2.03;;;;;;;4.70;100.00;101155.41;10603934;28;20047;-76
2022/11/02 17:59:22;;;;;;;3.00;2.25;;;;;;;4.81;100.00;101160.03;10612145;28;20039;-75
2022/11/02 18:04:25;;;;;;;3.53;2.42;;;;;;;4.74;100.00;101148.44;10608180;28;20031;-74
2022/11/02 18:09:28;;;;;;;6.10;2.50;;;;;;;4.66;100.00;101155.00;10604441;27;20035;-75
2022/11/02 18:14:31;;;;;;;4.90;2.83;;;;;;;4.60;100.00;101161.34;10611196;27;20054;-75
2022/11/02 18:19:33;;;;;;;3.85;2.55;;;;;;;4.62;99.67;101163.84;10607163;28;20051;-74
2022/11/02 18:24:36;;;;;;;4.82;2.10;;;;;;;4.58;99.39;101155.31;10610475;27;20062;-76
2022/11/02 18:30:05;;;;;;;3.28;2.33;;;;;;;4.69;100.00;101161.88;10611661;28;20047;-82
2022/11/02 18:35:10;;;;;;;5.15;2.45;;;;;;;4.73;99.91;101168.53;10605492;28;20047;-76
2022/11/02 18:40:16;;;;;;;2.58;2.20;;;;;;;4.74;99.53;101165.56;10608364;28;20040;-79
2022/11/02 18:45:18;;;;;;;3.45;2.53;;;;;;;4.78;99.43;101174.09;10608317;28;20521;-83
2022/11/02 18:50:20;;;;;;;3.10;2.20;;;;;;;4.65;99.14;101176.97;10596344;28;20072;-93
2022/11/02 18:55:22;;;;;;;3.17;2.47;;;;;;;4.57;98.75;101174.59;10608214;27;20051;-79
2022/11/02 19:00:25;;;;;;;4.07;2.78;;;;;;;4.59;99.07;101177.91;10599704;27;20536;-78
2022/11/02 19:10:52;;;;;;;2.53;2.10;;;;;;;4.54;98.60;101178.59;10594043;28;20048;-77
2022/11/02 19:15:55;;;;;;;3.47;2.47;;;;;;;4.50;99.06;101185.50;10607283;28;20039;-79
2022/11/02 19:21:03;;;;;;;4.90;2.72;;;;;;;4.47;99.36;101175.09;10600700;28;20533;-87
2022/11/02 19:26:06;;;;;;;4.07;2.65;;;;;;;4.40;100.00;101180.63;10616402;27;20043;-82
2022/11/02 19:31:08;;;;;;;5.13;2.88;;;;;;;4.36;100.00;101170.44;10586888;27;20157;-73
2022/11/02 19:36:10;;;;;;;4.45;2.53;;;;;;;4.34;99.99;101176.13;10591446;27;20044;-73
2022/11/02 19:41:14;;;;;;;5.15;3.13;;;;;;;4.41;100.00;101182.28;10580280;28;20498;-72
2022/11/02 19:46:18;;;;;;;3.55;2.63;;;;;;;4.36;100.00;101179.44;10582632;28;20461;-72
2022/11/02 19:51:22;;;;;;;4.25;2.50;;;;;;;4.38;100.00;101182.75;10597810;27;20042;-88
2022/11/02 19:56:29;;;;;;;3.38;2.45;;;;;;;4.47;100.00;101181.38;10579842;27;20414;-87
2022/11/02 20:01:37;;;;;;;5.05;2.83;;;;;;;4.56;100.00;101178.38;10600678;28;20085;-84
2022/11/02 20:06:42;;;;;;;4.83;3.03;;;;;;;4.59;100.00;101176.00;10589209;27;20131;-89
2022/11/02 20:11:46;;;;;;;4.85;3.20;;;;;;;4.47;100.00;101175.94;10609280;28;20125;-92
2022/11/02 20:16:48;;;;;;;5.60;3.00;;;;;;;4.38;100.00;101169.16;10575252;28;20528;-74
2022/11/02 20:21:50;;;;;;;3.95;2.92;;;;;;;4.37;100.00;101172.13;10595850;28;20047;-78
2022/11/02 20:26:55;;;;;;;5.38;2.78;;;;;;;4.46;100.00;101174.28;10599974;28;20066;-79
2022/11/02 20:31:58;;;;;;;3.65;2.35;;;;;;;4.45;100.00;101180.78;10610548;28;20041;-79
2022/11/02 20:37:00;;;;;;;4.72;3.38;;;;;;;4.46;100.00;101176.16;10609267;28;20058;-84
2022/11/02 20:42:02;;;;;;;6.88;3.22;;;;;;;4.42;100.00;101178.53;10568299;28;20044;-80
2022/11/02 20:47:04;;;;;;;5.95;3.55;;;;;;;4.39;100.00;101172.72;10600163;28;20441;-83
2022/11/02 20:52:06;;;;;;;5.10;2.60;;;;;;;4.42;100.00;101175.81;10578233;28;20043;-83
2022/11/02 20:57:08;;;;;;;4.53;2.88;;;;;;;4.46;100.00;101174.28;10581632;28;20493;-82
2022/11/02 21:02:11;;;;;;;5.80;3.13;;;;;;;4.55;100.00;101169.38;10602462;28;20043;-81
2022/11/02 21:07:13;;;;;;;7.63;2.40;;;;;;;4.64;100.00;101172.59;10608965;28;20036;-83
2022/11/02 21:17:36;;;;;;;4.97;3.13;;;;;;;4.51;100.00;101176.31;10598174;28;20047;-83
2022/11/02 21:22:40;;;;;;;5.00;2.88;;;;;;;4.61;100.00;101173.88;10585018;28;20571;-82
2022/11/02 21:27:42;;;;;;;6.68;3.35;;;;;;;4.62;100.00;101189.13;10611312;28;20052;-79
2022/11/02 21:32:44;;;;;;;3.65;2.58;;;;;;;4.53;100.00;101183.19;10609933;28;20046;-84
2022/11/02 21:37:47;;;;;;;4.72;2.65;;;;;;;4.49;100.00;101179.25;10605997;28;20055;-78
2022/11/02 21:42:50;;;;;;;3.80;2.20;;;;;;;4.44;100.00;101175.56;10610706;28;20531;-80
2022/11/02 21:47:52;;;;;;;3.42;2.30;;;;;;;4.42;100.00;101173.09;10615392;28;20063;-80
2022/11/02 21:52:55;;;;;;;2.78;2.03;;;;;;;4.43;100.00;101177.47;10594371;28;20048;-77
2022/11/02 21:57:57;;;;;;;6.72;3.28;;;;;;;4.37;100.00;101178.38;10608266;28;20052;-75
2022/11/02 22:02:59;;;;;;;4.47;2.85;;;;;;;4.31;100.00;101179.25;10612401;28;20032;-79
2022/11/02 22:13:33;;;;;;;6.28;3.53;;;;;;;4.22;100.00;101177.91;10605211;28;20043;-81
2022/11/02 22:18:35;;;;;;;4.38;2.92;;;;;;;4.19;100.00;101184.63;10608500;28;20933;-82
2022/11/02 22:23:38;;;;;;;7.57;2.92;;;;;;;4.16;100.00;101179.63;10612715;28;20056;-82
2022/11/02 22:28:42;;;;;;;6.03;2.88;;;;;;;4.16;100.00;101184.22;10602588;28;20058;-80
2022/11/02 22:33:45;;;;;;;6.25;3.22;;;;;;;4.15;100.00;101188.00;10571036;28;20036;-79
2022/11/02 22:38:50;;;;;;;4.78;3.13;;;;;;;4.18;100.00;101191.13;10596448;28;20097;-82
2022/11/02 22:44:16;;;;;;;6.25;3.03;;;;;;;4.13;100.00;101179.25;10577642;28;20044;-74
2022/11/02 22:49:18;;;;;;;2.75;1.40;;;;;;;4.08;100.00;101179.13;10606961;28;20039;-77
2022/11/02 22:54:21;;;;;;;6.53;2.80;;;;;;;4.06;100.00;101184.78;10601228;28;20064;-82
2022/11/02 22:59:24;;;;;;;6.05;3.30;;;;;;;4.02;100.00;101180.84;10613774;28;20066;-77
2022/11/02 23:04:26;;;;;;;7.65;3.35;;;;;;;4.03;100.00;101185.22;10563295;28;20036;-80
2022/11/02 23:09:28;;;;;;;7.57;3.05;;;;;;;4.05;100.00;101183.13;10610419;28;20047;-84
2022/11/02 23:14:30;;;;;;;4.90;2.67;;;;;;;4.05;100.00;101180.41;10579236;28;20055;-80
2022/11/02 23:19:57;;;;;;;9.40;4.27;;;;;;;4.07;100.00;101180.16;10595672;27;20044;-74
2022/11/02 23:25:10;;;;;;;7.10;3.20;;;;;;;4.07;100.00;101185.59;10597372;28;20055;-73
2022/11/02 23:36:09;;;;;;;8.07;3.60;;;;;;;4.09;100.00;101191.63;10567724;27;20395;-73
2022/11/02 23:41:12;;;;;;;11.45;4.22;;;;;;;4.13;100.00;101188.25;10608588;28;20070;-73
2022/11/02 23:46:14;;;;;;;9.95;3.88;;;;;;;4.15;100.00;101182.56;10610970;28;20035;-73
2022/11/02 23:56:42;;;;;;;11.00;3.97;;;;;;;4.16;100.00;101190.50;10601972;28;20046;-74
